BIKFCYYR

Guest
Details From BIKF - Keflavik
To CYYR - Goose Bay
Flight Number -
Tags decoded
Created
Modified
Stats Distance 1,316 nm / 2,438 km
Max Altitude 0 ft / 0 m
Waypoints 2
Social Downloads 1
Likes 0
Share VATSIM

Download

Looking for another format? Having issues loading an existing format? Contact us
Advertisement - Login to hide

Notes

Requested: BIKF CYYR

Route

BIKF CYYR

ID Type Via Altitude Latitude Longitude Leg Dist Tot Dist Heading (true) Name
O BIKF APT - 0 ft / 0 m 63.98161˚ -22.61456˚ - 0 nm - Keflavik
O CYYR APT - 0 ft / 0 m 53.31882˚ -60.42389˚ 1316 nm 1316 nm 259° / 226° Goose Bay

Altitude Profile

Advertisement - Login to hide

Weather


0- 5 10 15 20 25 30 35+ Temperature / ° C

Clouds and Precipitation
Forecast for 2018-05-21 12:00 UTC. Updated 20 minutes ago

Ground ~20,000 ft ~40,000 ft Winds

BIKF

Details ICAO BIKF (KEF)
Name Keflavik
Region Iceland
Timezone Atlantic/Reykjavik (UTC+0.0)
Stats Elevation 170 ft / 52 m (AMSL)
Location 63.981612° -22.614563°
Runways 2
Magnetic Variation 13.952° W

METAR

BIKF 210930Z 33009KT 9999 FEW017 BKN022 05/02 Q1006

Decode

TAF

TAF BIKF 210804Z 2109/2209 33015KT 9999 SHRA BKN015 BKN025 TX07/2118Z TN04/2203Z BECMG 2111/2114 24012KT -SHRA SCT020 BKN030 BECMG 2121/2124 16017KT -RA SCT020 BKN050 BECMG 2205/2208 15023G33KT

Decode

Departure Runways

ID Width Length Bearing (true) Bearing (mag) Surface Threshold Offset Overrun Length
02 197 ft / 60 m 9,997 ft / 3,047 m 0.02° 13.97° Asphalt 0 ft / 0 m 492 ft / 150 m
11 197 ft / 60 m 10,022 ft / 3,055 m 89.97° 103.92° Asphalt 0 ft / 0 m 246 ft / 75 m
20 197 ft / 60 m 9,997 ft / 3,047 m 180.02° 193.97° Asphalt 0 ft / 0 m 98 ft / 30 m
29 197 ft / 60 m 10,022 ft / 3,055 m 270.02° 283.97° Asphalt 0 ft / 0 m 197 ft / 60 m

CYYR

Details ICAO CYYR (YYR)
Name Goose Bay
Region Canada
Timezone America/Goose_Bay (UTC-3.0)
Stats Elevation 160 ft / 49 m (AMSL)
Location 53.318820° -60.423890°
Runways 2
Magnetic Variation 20.870° W

METAR

CYYR 210900Z 11004KT 12SM -SHSN FEW002 FEW030 BKN043 BKN075 M01/M03 A2964 RMK SF1SC1SC6ACC1 SLP040

Decode

TAF

TAF CYYR 210530Z 2106/2206 VRB03KT P6SM FEW020 BKN030 TEMPO 2106/2114 BKN020 FM211400 VRB03KT P6SM FEW020 BKN030 TEMPO 2114/2120 5SM -SHRASN BR OVC020 BECMG 2116/2118 06006KT FM212000 06008KT 3SM -SN BR OVC015 FM220300 VRB03KT P6SM OVC010 RMK NXT FCST BY 211200Z

Decode

Destination Runways

ID Width Length Bearing (true) Bearing (mag) Surface Threshold Offset Overrun Length
08 209 ft / 64 m 11,055 ft / 3,369 m 54.70° 75.57° Asphalt 0 ft / 0 m 1,000 ft / 305 m
16 200 ft / 61 m 9,515 ft / 2,900 m 132.96° 153.83° Asphalt 0 ft / 0 m 0 ft / 0 m
26 209 ft / 64 m 11,055 ft / 3,369 m 234.73° 255.60° Asphalt 0 ft / 0 m 1,000 ft / 305 m
34 200 ft / 61 m 9,515 ft / 2,900 m 312.99° 333.86° Asphalt 0 ft / 0 m 500 ft / 152 m

Popular Alternatives